createdAt,value
2019-05-01T00:00:29.675Z,14.61
2019-05-01T00:03:30.566Z,14.52
2019-05-01T00:06:00.734Z,14.43
2019-05-01T00:08:30.471Z,14.71
2019-05-01T00:11:00.247Z,14.39
2019-05-01T00:13:30.106Z,14.46
2019-05-01T00:16:00.011Z,14.39
2019-05-01T00:18:30.214Z,14.37
2019-05-01T00:21:00.047Z,14.15
2019-05-01T00:23:29.767Z,14.08
2019-05-01T00:25:59.437Z,14.08
2019-05-01T00:28:29.254Z,14.09
2019-05-01T00:30:58.964Z,14.09
2019-05-01T00:33:29.174Z,14.04
2019-05-01T00:35:58.985Z,14.33
2019-05-01T00:38:30.300Z,14.16
2019-05-01T00:41:00.258Z,14.07
2019-05-01T00:43:29.940Z,14.07
2019-05-01T00:46:00.050Z,13.96
2019-05-01T00:48:29.781Z,14.10
2019-05-01T00:50:59.911Z,14.12
2019-05-01T00:53:29.874Z,14.01
2019-05-01T00:56:16.721Z,14.05
2019-05-01T00:59:06.909Z,14.00
2019-05-01T01:01:54.398Z,14.26
2019-05-01T01:04:24.332Z,14.15
2019-05-01T01:06:54.751Z,13.95
2019-05-01T01:09:25.004Z,14.12
2019-05-01T01:11:54.773Z,14.42
2019-05-01T01:14:24.488Z,13.89
2019-05-01T01:16:54.602Z,14.03
2019-05-01T01:19:24.267Z,14.20
2019-05-01T01:21:54.337Z,14.08
2019-05-01T01:24:24.102Z,13.96
2019-05-01T01:26:54.340Z,14.27
2019-05-01T01:29:24.103Z,14.26
2019-05-01T01:31:53.829Z,14.19
2019-05-01T01:34:23.640Z,14.17
2019-05-01T01:36:53.383Z,14.21
2019-05-01T01:39:23.092Z,14.25
2019-05-01T01:41:53.876Z,14.48
2019-05-01T01:44:41.862Z,14.57
2019-05-01T01:47:11.804Z,14.72
2019-05-01T01:49:41.813Z,14.52
2019-05-01T01:52:12.157Z,14.48
2019-05-01T01:54:42.069Z,14.38
2019-05-01T01:57:11.963Z,14.36
2019-05-01T01:59:41.841Z,14.20
2019-05-01T02:02:27.756Z,14.13
2019-05-01T02:05:09.990Z,14.25
2019-05-01T02:07:40.305Z,14.41
2019-05-01T02:10:10.464Z,14.35
2019-05-01T02:12:41.462Z,14.24
2019-05-01T02:15:11.282Z,14.37
2019-05-01T02:17:41.107Z,14.12
2019-05-01T02:20:11.204Z,14.37
2019-05-01T02:22:41.190Z,14.32
2019-05-01T02:25:12.672Z,14.28
2019-05-01T02:27:48.540Z,14.02
2019-05-01T02:30:19.931Z,14.32
2019-05-01T02:32:50.211Z,14.25
2019-05-01T02:35:20.265Z,14.13
2019-05-01T02:37:51.034Z,14.21
2019-05-01T02:41:03.516Z,14.10
2019-05-01T02:43:36.524Z,14.10
2019-05-01T02:46:07.488Z,14.07
2019-05-01T02:48:39.094Z,14.23
2019-05-01T02:51:09.392Z,14.26
2019-05-01T02:53:42.324Z,14.05
2019-05-01T02:56:29.639Z,13.88
2019-05-01T02:59:00.079Z,13.63
2019-05-01T03:01:45.413Z,13.52
2019-05-01T03:04:02.039Z,13.26
2019-05-01T03:06:34.551Z,13.24
2019-05-01T03:09:08.171Z,13.25
2019-05-01T03:11:40.456Z,13.21
2019-05-01T03:14:15.903Z,13.37
2019-05-01T03:16:47.006Z,13.37
2019-05-01T03:19:25.411Z,13.36
2019-05-01T03:22:04.973Z,13.28
2019-05-01T03:24:35.026Z,13.25
2019-05-01T03:27:05.190Z,13.32
2019-05-01T03:29:35.396Z,13.48
2019-05-01T03:32:16.659Z,13.42
2019-05-01T03:34:37.305Z,13.50
2019-05-01T03:37:07.604Z,13.53
2019-05-01T03:39:38.540Z,13.44
2019-05-01T03:42:08.617Z,13.60
2019-05-01T03:44:38.689Z,13.65
2019-05-01T03:47:08.743Z,13.64
2019-05-01T03:49:39.006Z,13.65
2019-05-01T03:52:08.742Z,13.54
2019-05-01T03:54:39.143Z,13.30
2019-05-01T03:57:12.632Z,13.16
2019-05-01T03:59:41.069Z,13.25
2019-05-01T04:02:45.857Z,13.41
2019-05-01T04:05:16.707Z,13.55
2019-05-01T04:07:47.662Z,13.71
2019-05-01T04:10:17.339Z,13.71
2019-05-01T04:12:47.102Z,13.50
2019-05-01T04:15:17.167Z,13.82
2019-05-01T04:17:52.385Z,13.93
2019-05-01T04:20:22.277Z,14.04
2019-05-01T04:22:52.200Z,14.16
2019-05-01T04:25:22.872Z,13.71
2019-05-01T04:27:58.462Z,13.88
2019-05-01T04:30:44.215Z,14.09
2019-05-01T04:33:15.528Z,14.07
2019-05-01T04:36:08.842Z,14.26
2019-05-01T04:38:38.763Z,14.53
2019-05-01T04:41:09.272Z,14.36
2019-05-01T04:43:39.721Z,14.44
2019-05-01T04:46:09.860Z,14.52
2019-05-01T04:48:39.937Z,14.84
2019-05-01T04:51:10.021Z,14.73
2019-05-01T04:53:40.035Z,14.84
2019-05-01T04:56:10.024Z,15.06
2019-05-01T04:58:40.000Z,15.09
2019-05-01T05:01:09.868Z,15.32
2019-05-01T05:03:55.093Z,15.27
2019-05-01T05:06:24.977Z,15.52
2019-05-01T05:08:55.212Z,15.48
2019-05-01T05:11:27.796Z,15.70
2019-05-01T05:14:17.986Z,15.79
2019-05-01T05:16:52.147Z,15.60
2019-05-01T05:19:22.054Z,15.99
2019-05-01T05:21:51.930Z,15.92
2019-05-01T05:24:22.049Z,16.10
2019-05-01T05:26:52.255Z,16.23
2019-05-01T05:29:23.786Z,16.32
2019-05-01T05:31:54.850Z,16.56
2019-05-01T05:34:27.051Z,16.34
2019-05-01T05:37:00.365Z,16.22
2019-05-01T05:39:36.560Z,16.01
2019-05-01T05:42:06.778Z,15.91
2019-05-01T05:44:36.631Z,15.91
2019-05-01T05:47:06.517Z,15.89
2019-05-01T05:49:36.601Z,16.19
2019-05-01T05:52:16.415Z,16.04
2019-05-01T05:55:11.107Z,16.21
2019-05-01T05:58:17.745Z,16.27
2019-05-01T06:01:08.903Z,16.92
2019-05-01T06:04:11.623Z,16.53
2019-05-01T06:07:03.756Z,16.53
2019-05-01T06:09:44.633Z,16.57
2019-05-01T06:12:46.643Z,16.36
2019-05-01T06:15:30.966Z,16.32
2019-05-01T06:18:15.485Z,17.04
2019-05-01T06:21:02.360Z,16.92
2019-05-01T06:23:38.890Z,17.16
2019-05-01T06:26:37.449Z,17.07
2019-05-01T06:29:05.068Z,17.19
2019-05-01T06:31:36.744Z,16.88
2019-05-01T06:34:06.546Z,16.85
2019-05-01T06:36:36.887Z,16.56
2019-05-01T06:39:11.953Z,16.48
2019-05-01T06:41:44.356Z,16.66
2019-05-01T06:44:24.442Z,17.12
2019-05-01T06:47:07.629Z,17.29
2019-05-01T06:50:01.135Z,17.30
2019-05-01T06:52:30.733Z,17.33
2019-05-01T06:55:01.093Z,17.19
2019-05-01T06:57:31.512Z,17.42
2019-05-01T07:00:03.221Z,17.24
2019-05-01T07:02:34.983Z,17.53
2019-05-01T07:05:08.961Z,18.22
2019-05-01T07:07:37.060Z,17.83
2019-05-01T07:10:06.847Z,17.73
2019-05-01T07:12:37.476Z,17.53
2019-05-01T07:15:09.050Z,17.86
2019-05-01T07:17:39.213Z,17.85
2019-05-01T07:20:47.434Z,18.19
2019-05-01T07:23:19.001Z,18.03
2019-05-01T07:25:49.282Z,18.05
2019-05-01T07:28:19.031Z,18.38
2019-05-01T07:30:54.933Z,18.19
2019-05-01T07:33:24.128Z,18.39
2019-05-01T07:35:54.186Z,18.38
2019-05-01T07:38:23.957Z,18.42
2019-05-01T07:40:53.939Z,18.07
2019-05-01T07:43:34.000Z,18.15
2019-05-01T07:46:28.929Z,18.15
2019-05-01T07:48:59.390Z,18.47
2019-05-01T07:51:29.846Z,18.36
2019-05-01T07:54:04.017Z,18.24
2019-05-01T07:56:31.973Z,18.44
2019-05-01T07:59:01.749Z,18.66
2019-05-01T08:01:54.536Z,18.58
2019-05-01T08:04:35.113Z,18.32
2019-05-01T08:06:57.111Z,18.54
2019-05-01T08:09:25.197Z,18.81
2019-05-01T08:11:54.907Z,18.68
2019-05-01T08:14:24.640Z,18.68
2019-05-01T08:16:54.280Z,19.25
2019-05-01T08:19:34.742Z,19.40
2019-05-01T08:22:09.291Z,19.27
2019-05-01T08:24:38.993Z,19.47
2019-05-01T08:27:15.646Z,19.04
2019-05-01T08:30:07.764Z,19.13
2019-05-01T08:32:54.782Z,19.01
2019-05-01T08:35:25.632Z,18.92
2019-05-01T08:37:58.324Z,19.34
2019-05-01T08:40:26.704Z,19.54
2019-05-01T08:42:56.570Z,19.64
2019-05-01T08:45:44.144Z,19.50
2019-05-01T08:48:35.751Z,19.60
2019-05-01T08:51:03.453Z,19.34
2019-05-01T08:53:33.170Z,19.64
2019-05-01T08:56:02.959Z,20.04
2019-05-01T08:58:32.866Z,20.10
2019-05-01T09:01:04.422Z,19.88
2019-05-01T09:03:34.212Z,20.24
2019-05-01T09:06:03.821Z,20.64
2019-05-01T09:08:33.477Z,20.88
2019-05-01T09:11:03.213Z,20.79
2019-05-01T09:13:32.819Z,21.12
2019-05-01T09:16:02.536Z,21.14
2019-05-01T09:18:32.172Z,20.95
2019-05-01T09:21:01.869Z,21.28
2019-05-01T09:23:34.274Z,21.21
2019-05-01T09:26:20.574Z,21.65
2019-05-01T09:28:56.062Z,22.01
2019-05-01T09:31:27.411Z,22.13
2019-05-01T09:33:57.141Z,22.26
2019-05-01T09:36:26.955Z,22.48
2019-05-01T09:38:56.603Z,21.84
2019-05-01T09:41:37.670Z,21.39
2019-05-01T09:43:57.680Z,21.47
2019-05-01T09:46:27.769Z,21.31
2019-05-01T09:48:57.461Z,22.17
2019-05-01T09:51:58.234Z,22.29
2019-05-01T09:54:35.726Z,22.26
2019-05-01T09:57:05.485Z,22.60
2019-05-01T09:59:35.153Z,22.33
2019-05-01T10:02:07.785Z,22.04
2019-05-01T10:04:36.379Z,22.14
2019-05-01T10:07:07.357Z,22.41
2019-05-01T10:09:37.624Z,22.33
2019-05-01T10:12:11.639Z,22.92
2019-05-01T10:14:38.698Z,23.06
2019-05-01T10:17:08.427Z,22.54
2019-05-01T10:19:38.193Z,22.75
2019-05-01T10:22:07.980Z,23.19
2019-05-01T10:24:39.300Z,23.60
2019-05-01T10:27:11.951Z,23.24
2019-05-01T10:30:01.577Z,23.57
2019-05-01T10:32:36.711Z,23.33
2019-05-01T10:35:21.167Z,23.03
2019-05-01T10:37:50.875Z,22.85
2019-05-01T10:40:22.310Z,23.42
2019-05-01T10:42:52.243Z,23.13
2019-05-01T10:45:21.868Z,22.50
2019-05-01T10:47:51.595Z,22.74
2019-05-01T10:50:21.283Z,22.77
2019-05-01T10:52:51.477Z,22.72
2019-05-01T10:55:21.270Z,22.52
2019-05-01T10:57:51.022Z,22.32
2019-05-01T11:00:20.936Z,22.69
2019-05-01T11:02:50.760Z,22.36
2019-05-01T11:05:20.389Z,22.58
2019-05-01T11:07:50.100Z,22.59
2019-05-01T11:10:21.275Z,22.48
2019-05-01T11:12:50.890Z,22.68
2019-05-01T11:15:20.887Z,22.78
2019-05-01T11:17:50.638Z,22.81
2019-05-01T11:20:20.375Z,22.96
2019-05-01T11:22:50.147Z,23.22
2019-05-01T11:25:20.619Z,23.38
2019-05-01T11:27:50.592Z,23.15
2019-05-01T11:30:20.490Z,23.32
2019-05-01T11:32:56.592Z,23.56
2019-05-01T11:35:48.209Z,23.65
2019-05-01T11:38:40.095Z,22.82
2019-05-01T11:41:18.451Z,23.40
2019-05-01T11:43:48.150Z,24.11
2019-05-01T11:46:17.949Z,24.14
2019-05-01T11:48:47.981Z,24.18
2019-05-01T11:51:17.822Z,24.08
2019-05-01T11:53:47.467Z,24.14
2019-05-01T11:56:17.189Z,24.53
2019-05-01T11:58:47.019Z,24.38
2019-05-01T12:01:18.300Z,25.04
2019-05-01T12:03:48.083Z,25.09
2019-05-01T12:06:23.121Z,25.43
2019-05-01T12:08:49.283Z,25.44
2019-05-01T12:11:21.004Z,25.34
2019-05-01T12:13:50.908Z,25.96
2019-05-01T12:16:38.086Z,25.63
2019-05-01T12:19:07.849Z,25.45
2019-05-01T12:21:37.599Z,26.02
2019-05-01T12:24:07.540Z,25.64
2019-05-01T12:26:37.201Z,25.70
2019-05-01T12:29:35.818Z,25.42
2019-05-01T12:32:52.334Z,25.57
2019-05-01T12:35:22.081Z,25.48
2019-05-01T12:38:32.869Z,25.74
2019-05-01T12:41:26.380Z,25.25
2019-05-01T12:43:56.020Z,25.64
2019-05-01T12:47:00.097Z,25.80
2019-05-01T12:49:30.118Z,25.59
2019-05-01T12:52:10.353Z,25.65
2019-05-01T12:54:44.628Z,25.60
2019-05-01T12:57:14.607Z,25.55
2019-05-01T12:59:44.541Z,25.55
2019-05-01T13:02:14.194Z,25.29
2019-05-01T13:04:43.980Z,25.28
2019-05-01T13:07:14.049Z,25.28
2019-05-01T13:09:43.732Z,25.13
2019-05-01T13:12:13.437Z,25.25
2019-05-01T13:14:43.224Z,25.17
2019-05-01T13:17:12.901Z,24.97
2019-05-01T13:19:42.537Z,24.81
2019-05-01T13:22:12.150Z,24.77
2019-05-01T13:24:51.143Z,25.09
2019-05-01T13:27:26.835Z,24.63
2019-05-01T13:30:15.478Z,24.98
2019-05-01T13:32:54.727Z,24.98
2019-05-01T13:35:24.818Z,24.86
2019-05-01T13:37:54.434Z,25.19
2019-05-01T13:40:24.197Z,25.34
2019-05-01T13:42:53.864Z,25.39
2019-05-01T13:45:23.736Z,25.39
2019-05-01T13:47:54.575Z,24.98
2019-05-01T13:50:24.705Z,25.07
2019-05-01T13:52:54.530Z,25.07
2019-05-01T13:55:25.046Z,24.64
2019-05-01T13:57:54.851Z,24.74
2019-05-01T14:00:27.252Z,24.86
2019-05-01T14:02:56.922Z,25.05
2019-05-01T14:05:26.598Z,24.87
2019-05-01T14:07:56.380Z,24.45
2019-05-01T14:10:26.126Z,24.83
2019-05-01T14:12:56.066Z,24.83
2019-05-01T14:15:26.850Z,24.78
2019-05-01T14:17:57.017Z,24.22
2019-05-01T14:20:51.579Z,24.32
2019-05-01T14:23:34.093Z,24.31
2019-05-01T14:26:04.109Z,24.13
2019-05-01T14:28:35.784Z,24.10
2019-05-01T14:31:06.190Z,24.06
2019-05-01T14:33:36.205Z,24.26
2019-05-01T14:36:06.228Z,24.00
2019-05-01T14:38:36.001Z,23.87
2019-05-01T14:41:05.884Z,23.89
2019-05-01T14:43:37.905Z,23.69
2019-05-01T14:46:07.669Z,23.67
2019-05-01T14:48:37.498Z,24.15
2019-05-01T14:51:07.247Z,23.69
2019-05-01T14:53:36.983Z,23.84
2019-05-01T14:56:06.739Z,24.06
2019-05-01T14:58:36.529Z,23.99
2019-05-01T15:01:06.821Z,23.90
2019-05-01T15:03:36.625Z,23.82
2019-05-01T15:06:06.718Z,24.19
2019-05-01T15:08:37.136Z,23.99
2019-05-01T15:11:07.767Z,24.02
2019-05-01T15:14:05.610Z,23.98
2019-05-01T15:17:09.525Z,23.81
2019-05-01T15:19:45.267Z,24.06
2019-05-01T15:22:14.945Z,24.17
2019-05-01T15:24:45.053Z,23.82
2019-05-01T15:27:14.895Z,23.80
2019-05-01T15:29:44.751Z,23.53
2019-05-01T15:32:14.646Z,22.99
2019-05-01T15:34:44.649Z,22.84
2019-05-01T15:37:15.095Z,23.20
2019-05-01T15:40:01.985Z,22.89
2019-05-01T15:42:40.119Z,22.73
2019-05-01T15:45:10.334Z,22.81
2019-05-01T15:47:40.542Z,22.61
2019-05-01T15:50:10.933Z,22.92
2019-05-01T15:52:40.902Z,22.61
2019-05-01T15:55:12.041Z,22.81
2019-05-01T15:57:42.390Z,22.94
2019-05-01T16:00:15.610Z,23.08
2019-05-01T16:02:46.344Z,22.66
2019-05-01T16:05:18.284Z,22.80
2019-05-01T16:07:48.436Z,22.46
2019-05-01T16:10:23.406Z,22.44
2019-05-01T16:12:58.129Z,22.18
2019-05-01T16:15:31.543Z,21.95
2019-05-01T16:18:02.364Z,22.12
2019-05-01T16:20:32.042Z,21.79
2019-05-01T16:23:02.548Z,21.49
2019-05-01T16:25:32.926Z,21.61
2019-05-01T16:28:02.890Z,21.47
2019-05-01T16:30:33.015Z,21.25
2019-05-01T16:33:03.022Z,21.36
2019-05-01T16:35:32.899Z,21.17
2019-05-01T16:38:05.129Z,21.52
2019-05-01T16:40:45.531Z,21.18
2019-05-01T16:43:15.580Z,21.30
2019-05-01T16:45:59.623Z,21.25
2019-05-01T16:48:28.631Z,21.09
2019-05-01T16:50:58.632Z,21.16
2019-05-01T16:53:29.131Z,21.04
2019-05-01T16:55:58.962Z,21.02
2019-05-01T16:58:29.403Z,21.08
2019-05-01T17:01:05.317Z,20.89
2019-05-01T17:03:54.034Z,20.90
2019-05-01T17:06:45.825Z,20.84
2019-05-01T17:09:34.465Z,20.85
2019-05-01T17:12:05.644Z,20.79
2019-05-01T17:14:36.762Z,20.80
2019-05-01T17:17:08.737Z,20.62
2019-05-01T17:19:39.112Z,20.57
2019-05-01T17:22:14.276Z,21.07
2019-05-01T17:24:42.426Z,20.86
2019-05-01T17:27:12.754Z,20.84
2019-05-01T17:29:42.595Z,20.76
2019-05-01T17:32:14.328Z,20.52
2019-05-01T17:34:44.578Z,20.36
2019-05-01T17:37:14.822Z,20.37
2019-05-01T17:39:44.486Z,20.35
2019-05-01T17:42:14.273Z,20.49
2019-05-01T17:44:44.572Z,20.46
2019-05-01T17:47:17.915Z,20.24
2019-05-01T17:49:46.398Z,19.66
2019-05-01T17:52:16.752Z,20.14
2019-05-01T17:54:46.629Z,20.09
2019-05-01T17:57:16.663Z,20.07
2019-05-01T17:59:48.198Z,20.09
2019-05-01T18:02:25.968Z,20.26
2019-05-01T18:05:18.150Z,20.03
2019-05-01T18:07:48.036Z,19.97
2019-05-01T18:10:17.990Z,20.04
2019-05-01T18:12:48.190Z,20.03
2019-05-01T18:15:18.116Z,20.31
2019-05-01T18:17:47.971Z,20.10
2019-05-01T18:20:18.152Z,19.97
2019-05-01T18:23:12.362Z,19.88
2019-05-01T18:25:55.535Z,19.70
2019-05-01T18:28:53.320Z,19.62
2019-05-01T18:31:27.979Z,19.61
2019-05-01T18:34:02.574Z,19.85
2019-05-01T18:36:35.830Z,19.95
2019-05-01T18:39:17.269Z,19.70
2019-05-01T18:41:53.587Z,20.01
2019-05-01T18:44:23.443Z,19.70
2019-05-01T18:46:53.520Z,19.64
2019-05-01T18:49:23.512Z,19.79
2019-05-01T18:51:53.878Z,19.53
2019-05-01T18:54:25.035Z,19.78
2019-05-01T18:56:54.871Z,19.80
2019-05-01T18:59:25.299Z,19.65
2019-05-01T19:01:56.494Z,19.51
2019-05-01T19:04:26.648Z,19.52
2019-05-01T19:06:57.468Z,19.54
2019-05-01T19:09:30.046Z,19.41
2019-05-01T19:12:00.251Z,19.31
2019-05-01T19:14:30.834Z,19.34
2019-05-01T19:17:00.980Z,19.58
2019-05-01T19:19:31.516Z,19.50
2019-05-01T19:22:02.007Z,19.35
2019-05-01T19:24:37.349Z,19.53
2019-05-01T19:27:04.564Z,19.23
2019-05-01T19:29:34.761Z,19.27
2019-05-01T19:32:06.586Z,19.10
2019-05-01T19:34:36.639Z,19.20
2019-05-01T19:37:06.666Z,18.99
2019-05-01T19:39:43.708Z,19.14
2019-05-01T19:42:10.809Z,18.79
2019-05-01T19:44:41.637Z,18.97
2019-05-01T19:47:12.600Z,18.80
2019-05-01T19:49:45.619Z,18.83
2019-05-01T19:52:15.626Z,18.57
2019-05-01T19:54:45.379Z,18.50
2019-05-01T19:57:16.258Z,18.53
2019-05-01T19:59:46.238Z,18.25
2019-05-01T20:02:17.271Z,18.08
2019-05-01T20:04:50.557Z,17.97
2019-05-01T20:07:21.619Z,17.95
2019-05-01T20:09:56.962Z,17.62
2019-05-01T20:12:23.578Z,16.99
2019-05-01T20:14:53.715Z,17.44
2019-05-01T20:17:23.785Z,17.38
2019-05-01T20:19:53.691Z,17.12
2019-05-01T20:22:24.394Z,16.93
2019-05-01T20:24:54.341Z,16.54
2019-05-01T20:27:27.634Z,16.75
2019-05-01T20:29:57.531Z,16.69
2019-05-01T20:32:29.352Z,16.63
2019-05-01T20:34:59.648Z,16.67
2019-05-01T20:37:29.359Z,16.72
2019-05-01T20:40:10.372Z,16.68
2019-05-01T20:42:30.807Z,16.66
2019-05-01T20:45:05.317Z,16.86
2019-05-01T20:47:35.314Z,16.90
2019-05-01T20:50:05.674Z,16.86
2019-05-01T20:52:35.762Z,16.81
2019-05-01T20:55:07.046Z,16.77
2019-05-01T20:57:39.054Z,16.86
2019-05-01T21:00:16.662Z,16.51
2019-05-01T21:02:44.654Z,16.36
2019-05-01T21:05:39.261Z,16.34
2019-05-01T21:08:28.991Z,15.95
2019-05-01T21:11:05.961Z,16.28
2019-05-01T21:13:36.197Z,16.22
2019-05-01T21:16:06.299Z,16.27
2019-05-01T21:18:36.324Z,16.12
2019-05-01T21:21:06.392Z,16.03
2019-05-01T21:23:36.590Z,16.02
2019-05-01T21:26:06.410Z,16.04
2019-05-01T21:28:36.767Z,16.07
2019-05-01T21:31:06.558Z,16.04
2019-05-01T21:33:36.402Z,15.99
2019-05-01T21:36:08.604Z,15.94
2019-05-01T21:38:39.703Z,15.91
2019-05-01T21:41:09.466Z,15.89
2019-05-01T21:43:39.581Z,15.86
2019-05-01T21:46:09.557Z,15.85
2019-05-01T21:48:39.767Z,16.01
2019-05-01T21:51:09.605Z,15.90
2019-05-01T21:53:42.673Z,16.06
2019-05-01T21:56:11.922Z,16.32
2019-05-01T21:58:41.647Z,16.04
2019-05-01T22:01:12.012Z,16.09
2019-05-01T22:03:42.570Z,16.21
2019-05-01T22:06:15.294Z,16.02
2019-05-01T22:08:45.093Z,15.98
2019-05-01T22:11:14.843Z,15.89
2019-05-01T22:13:44.610Z,15.62
2019-05-01T22:16:22.356Z,16.08
2019-05-01T22:19:14.893Z,16.01
2019-05-01T22:22:12.618Z,16.09
2019-05-01T22:25:01.259Z,16.07
2019-05-01T22:27:37.849Z,16.01
2019-05-01T22:30:37.441Z,16.24
2019-05-01T22:33:07.490Z,16.29
2019-05-01T22:35:40.876Z,16.07
2019-05-01T22:38:10.803Z,16.35
2019-05-01T22:41:07.154Z,16.27
2019-05-01T22:43:37.356Z,16.33
2019-05-01T22:46:09.908Z,16.20
2019-05-01T22:48:40.127Z,16.09
2019-05-01T22:51:22.351Z,16.00
2019-05-01T22:53:57.043Z,15.97
2019-05-01T22:56:27.322Z,16.21
2019-05-01T22:58:57.222Z,16.24
2019-05-01T23:01:27.643Z,15.81
2019-05-01T23:04:12.021Z,16.10
2019-05-01T23:06:41.771Z,16.13
2019-05-01T23:09:14.196Z,15.99
2019-05-01T23:11:45.878Z,16.08
2019-05-01T23:14:17.835Z,16.12
2019-05-01T23:16:58.652Z,15.98
2019-05-01T23:19:27.755Z,16.37
2019-05-01T23:21:58.337Z,16.28
2019-05-01T23:24:28.435Z,16.21
2019-05-01T23:26:58.606Z,16.02
2019-05-01T23:29:28.261Z,16.14
2019-05-01T23:31:58.217Z,16.08
2019-05-01T23:34:28.020Z,16.04
2019-05-01T23:36:57.756Z,16.14
2019-05-01T23:39:27.889Z,15.94
2019-05-01T23:41:57.666Z,15.88
2019-05-01T23:44:27.825Z,15.95
2019-05-01T23:46:57.803Z,15.92
2019-05-01T23:49:27.590Z,15.98
2019-05-01T23:51:58.525Z,15.94
2019-05-01T23:54:28.895Z,16.00
2019-05-01T23:56:59.329Z,15.98
2019-05-01T23:59:29.042Z,15.98
